Time;durP1;ratioP1;P1;durP2;ratioP2;P2;SDS_P1;SDS_P2;PMS_P1;PMS_P2;Temp;Humidity;BMP_temperature;BMP_pressure;BME280_temperature;BME280_humidity;BME280_pressure;Samples;Min_cycle;Max_cycle;Signal;HPM_P1;HPM_P2
2024/01/14 00:00:47;;;;;;;9.00;6.10;;;1.70;99.90;;;;;;8234832;28;20205;-62
2024/01/14 00:04:48;;;;;;;8.60;6.13;;;1.70;99.90;;;;;;8235437;28;20192;-63
2024/01/14 00:08:49;;;;;;;9.50;6.60;;;1.70;1.00;;;;;;8233576;28;20265;-65
2024/01/14 00:12:50;;;;;;;8.03;6.23;;;1.70;1.00;;;;;;8235740;28;20272;-64
2024/01/14 00:16:51;;;;;;;9.83;6.43;;;1.80;99.90;;;;;;8230916;28;20220;-63
2024/01/14 00:20:54;;;;;;;7.47;5.50;;;1.80;99.90;;;;;;8237572;28;20192;-64
2024/01/14 00:24:56;;;;;;;8.03;5.77;;;1.80;99.90;;;;;;8251280;28;20582;-65
2024/01/14 00:28:59;;;;;;;6.87;5.67;;;1.80;99.90;;;;;;8236615;28;20297;-64
2024/01/14 00:33:00;;;;;;;7.70;5.70;;;1.80;99.90;;;;;;8238264;28;20192;-64
2024/01/14 00:37:01;;;;;;;6.37;5.37;;;1.80;99.90;;;;;;8253042;28;20219;-65
2024/01/14 00:41:02;;;;;;;9.50;5.90;;;1.90;99.90;;;;;;8239432;28;20298;-65
2024/01/14 00:45:03;;;;;;;9.77;6.07;;;1.80;99.90;;;;;;8237055;28;20191;-62
2024/01/14 00:49:03;;;;;;;6.97;5.47;;;1.90;99.90;;;;;;8237571;28;20203;-63
2024/01/14 00:53:04;;;;;;;6.57;4.97;;;1.90;99.90;;;;;;8237841;28;20191;-62
2024/01/14 00:57:05;;;;;;;6.83;5.53;;;1.90;99.90;;;;;;8231858;28;20242;-62
2024/01/14 01:01:06;;;;;;;8.87;5.10;;;1.90;99.90;;;;;;8224705;28;20270;-62
2024/01/14 01:05:07;;;;;;;7.97;5.60;;;2.00;99.90;;;;;;8222008;28;20219;-64
2024/01/14 01:09:08;;;;;;;7.47;5.37;;;1.90;99.90;;;;;;8225602;28;20206;-64
2024/01/14 01:13:08;;;;;;;6.97;5.27;;;1.90;99.90;;;;;;8230714;28;20199;-64
2024/01/14 01:17:09;;;;;;;8.50;5.37;;;1.90;99.90;;;;;;8226182;28;20282;-63
2024/01/14 01:21:10;;;;;;;6.77;5.67;;;1.90;99.90;;;;;;8229249;28;20188;-64
2024/01/14 01:25:11;;;;;;;11.03;5.97;;;1.80;99.90;;;;;;8229092;28;20199;-64
2024/01/14 01:29:11;;;;;;;6.87;5.13;;;1.70;99.90;;;;;;8247740;28;20199;-64
2024/01/14 01:33:12;;;;;;;7.20;5.00;;;1.80;99.90;;;;;;8240348;28;20227;-63
2024/01/14 01:37:13;;;;;;;7.77;4.87;;;1.70;99.90;;;;;;8242862;28;20282;-62
2024/01/14 01:41:14;;;;;;;8.07;5.77;;;1.70;1.00;;;;;;8223190;28;20187;-63
2024/01/14 01:45:15;;;;;;;7.57;5.73;;;1.60;1.00;;;;;;8222285;28;20199;-63
2024/01/14 01:49:16;;;;;;;6.60;5.07;;;1.60;99.90;;;;;;8227838;28;20192;-61
2024/01/14 01:53:17;;;;;;;9.77;5.83;;;1.50;99.90;;;;;;8224239;28;20262;-64
2024/01/14 01:57:19;;;;;;;7.50;5.27;;;1.40;99.90;;;;;;8227117;28;20223;-63
2024/01/14 02:01:21;;;;;;;8.40;5.63;;;1.40;1.00;;;;;;8228478;28;20200;-63
2024/01/14 02:05:22;;;;;;;7.43;5.50;;;1.40;17.50;;;;;;8230085;28;20219;-62
2024/01/14 02:09:23;;;;;;;9.33;5.40;;;1.40;99.90;;;;;;8230517;28;20275;-63
2024/01/14 02:13:24;;;;;;;9.50;5.47;;;1.40;99.90;;;;;;8249476;28;20191;-61
2024/01/14 02:17:25;;;;;;;10.63;6.03;;;1.40;1.00;;;;;;8223948;28;20258;-61
2024/01/14 02:21:40;;;;;;;7.70;4.93;;;1.40;1.00;;;;;;8229655;28;20275;-62
2024/01/14 02:25:40;;;;;;;6.80;5.13;;;1.40;92.90;;;;;;8247865;28;20379;-64
2024/01/14 02:29:43;;;;;;;8.07;5.77;;;1.30;99.90;;;;;;8231809;28;20291;-62
2024/01/14 02:33:43;;;;;;;7.40;5.37;;;1.30;99.90;;;;;;8229544;28;20188;-63
2024/01/14 02:37:47;;;;;;;6.70;5.37;;;1.40;12.60;;;;;;8224354;28;20207;-65
2024/01/14 02:41:51;;;;;;;8.50;5.40;;;1.40;99.90;;;;;;8244069;28;20270;-63
2024/01/14 02:45:52;;;;;;;10.30;5.90;;;1.30;99.90;;;;;;8230657;28;20194;-64
2024/01/14 02:49:52;;;;;;;8.73;5.23;;;1.30;1.00;;;;;;8229895;28;20302;-65
2024/01/14 02:53:53;;;;;;;6.60;4.57;;;1.30;99.90;;;;;;8230694;28;20629;-67
2024/01/14 02:57:55;;;;;;;6.17;5.07;;;1.40;1.00;;;;;;8246215;28;20358;-64
2024/01/14 03:01:56;;;;;;;7.93;5.33;;;1.50;99.90;;;;;;8242899;28;20192;-65
2024/01/14 03:05:56;;;;;;;7.63;4.97;;;1.50;99.90;;;;;;8237386;28;20411;-63
2024/01/14 03:09:57;;;;;;;6.70;5.03;;;1.50;99.90;;;;;;8231717;28;20199;-63
2024/01/14 03:13:58;;;;;;;8.50;5.17;;;1.40;99.90;;;;;;8225407;28;20572;-63
2024/01/14 03:17:58;;;;;;;6.63;5.13;;;1.40;1.00;;;;;;8230518;28;20503;-65
2024/01/14 03:22:00;;;;;;;5.67;4.40;;;1.40;99.90;;;;;;8231365;28;20188;-64
2024/01/14 03:26:01;;;;;;;8.40;5.50;;;1.50;99.90;;;;;;8229966;28;20567;-64
2024/01/14 03:30:05;;;;;;;4.63;3.90;;;1.50;83.00;;;;;;8231716;28;20580;-64
2024/01/14 03:34:08;;;;;;;6.27;4.70;;;1.40;99.90;;;;;;8224543;28;20228;-63
2024/01/14 03:38:11;;;;;;;6.00;4.30;;;1.40;1.00;;;;;;8233005;28;20188;-65
2024/01/14 03:42:12;;;;;;;8.00;5.10;;;1.40;1.00;;;;;;8246999;28;20184;-63
2024/01/14 03:46:12;;;;;;;5.67;4.70;;;1.50;99.90;;;;;;8231098;28;20599;-63
2024/01/14 03:50:13;;;;;;;6.67;5.07;;;1.40;99.90;;;;;;8225201;28;20394;-64
2024/01/14 03:54:14;;;;;;;5.73;4.33;;;1.40;63.00;;;;;;8230306;28;20239;-62
2024/01/14 03:58:15;;;;;;;6.00;4.63;;;1.40;1.00;;;;;;8226420;28;20302;-65
2024/01/14 04:02:16;;;;;;;6.37;5.03;;;1.40;1.00;;;;;;8227028;28;20203;-62
2024/01/14 04:06:22;;;;;;;5.73;4.20;;;1.50;99.90;;;;;;8243570;28;20195;-64
2024/01/14 04:10:23;;;;;;;6.07;4.43;;;1.50;99.90;;;;;;8226721;28;20219;-63
2024/01/14 04:14:23;;;;;;;4.90;4.07;;;1.50;89.80;;;;;;8222377;28;20302;-62
2024/01/14 04:18:24;;;;;;;6.27;3.60;;;1.40;99.90;;;;;;8229314;28;20227;-62
2024/01/14 04:22:25;;;;;;;6.00;4.60;;;1.40;99.90;;;;;;8224482;28;20494;-62
2024/01/14 04:26:26;;;;;;;4.67;4.07;;;1.40;1.00;;;;;;8226871;28;20196;-63
2024/01/14 04:30:29;;;;;;;5.00;4.03;;;1.40;1.00;;;;;;8227966;28;20192;-64
2024/01/14 04:34:30;;;;;;;7.20;4.43;;;1.40;99.90;;;;;;8230140;28;20219;-62
2024/01/14 04:38:31;;;;;;;5.00;4.37;;;1.40;99.90;;;;;;8229436;28;20242;-63
2024/01/14 04:42:32;;;;;;;5.23;3.90;;;1.40;1.00;;;;;;8231306;28;20219;-65
2024/01/14 04:46:32;;;;;;;5.60;4.50;;;1.50;1.00;;;;;;8227961;28;20274;-63
2024/01/14 04:50:33;;;;;;;5.33;4.37;;;1.50;99.90;;;;;;8231758;28;20191;-62
2024/01/14 04:54:34;;;;;;;5.00;4.20;;;1.50;1.00;;;;;;8229800;28;20223;-63
2024/01/14 04:58:34;;;;;;;5.37;4.03;;;1.50;99.90;;;;;;8227442;28;20286;-65
2024/01/14 05:02:35;;;;;;;6.77;4.17;;;1.50;1.00;;;;;;8228633;28;20199;-64
2024/01/14 05:06:36;;;;;;;6.20;4.63;;;1.50;1.00;;;;;;8225521;28;20188;-63
2024/01/14 05:10:36;;;;;;;6.20;3.93;;;1.50;1.00;;;;;;8226312;28;20200;-63
2024/01/14 05:14:37;;;;;;;4.93;3.87;;;1.50;99.90;;;;;;8232860;28;20215;-65
2024/01/14 05:18:38;;;;;;;4.83;3.77;;;1.50;99.90;;;;;;8224417;28;20187;-64
2024/01/14 05:22:39;;;;;;;4.97;3.60;;;1.50;99.90;;;;;;8228172;28;20188;-63
2024/01/14 05:26:40;;;;;;;5.10;4.40;;;1.50;99.90;;;;;;8225514;28;20191;-63
2024/01/14 05:30:41;;;;;;;5.77;4.30;;;1.50;1.00;;;;;;8225579;28;20242;-64
2024/01/14 05:34:43;;;;;;;5.53;4.00;;;1.50;99.90;;;;;;8221799;28;20223;-63
2024/01/14 05:38:43;;;;;;;6.27;4.80;;;1.50;99.90;;;;;;8227621;28;20223;-61
2024/01/14 05:42:44;;;;;;;4.70;3.93;;;1.50;99.90;;;;;;8227101;28;20222;-62
2024/01/14 05:46:45;;;;;;;4.77;3.73;;;1.50;99.90;;;;;;8229944;28;20191;-64
2024/01/14 05:50:45;;;;;;;4.37;3.50;;;1.50;99.90;;;;;;8228468;28;20203;-63
2024/01/14 05:54:47;;;;;;;5.63;3.93;;;1.50;99.90;;;;;;8227918;28;20212;-62
2024/01/14 05:58:47;;;;;;;4.70;3.57;;;1.50;99.90;;;;;;8232131;28;20215;-66
2024/01/14 06:02:49;;;;;;;4.17;3.70;;;1.50;6.20;;;;;;8227737;28;20205;-65
2024/01/14 06:06:50;;;;;;;4.13;3.70;;;1.40;99.90;;;;;;8224924;28;20192;-64
2024/01/14 06:10:53;;;;;;;3.97;3.13;;;1.50;1.00;;;;;;8226858;28;20290;-64
2024/01/14 06:14:56;;;;;;;4.13;3.10;;;1.40;1.00;;;;;;8229666;28;20250;-65
2024/01/14 06:18:57;;;;;;;4.87;3.80;;;1.40;1.00;;;;;;8225802;28;20223;-64
2024/01/14 06:22:58;;;;;;;4.20;3.67;;;1.40;86.10;;;;;;8243295;28;20191;-64
2024/01/14 06:26:59;;;;;;;4.40;3.87;;;1.40;20.80;;;;;;8226242;28;20192;-63
2024/01/14 06:30:59;;;;;;;4.73;3.90;;;1.40;99.90;;;;;;8243775;28;20196;-63
2024/01/14 06:35:00;;;;;;;4.47;3.60;;;1.40;99.90;;;;;;8241453;28;20230;-64
2024/01/14 06:39:01;;;;;;;6.13;4.23;;;1.40;99.90;;;;;;8229887;28;20192;-64
2024/01/14 06:43:01;;;;;;;6.27;4.30;;;1.40;1.00;;;;;;8225759;28;20180;-64
2024/01/14 06:47:02;;;;;;;6.40;3.60;;;1.40;1.00;;;;;;8247237;28;20330;-63
2024/01/14 06:51:03;;;;;;;5.80;3.80;;;1.30;10.20;;;;;;8232451;28;20207;-63
2024/01/14 06:55:04;;;;;;;5.90;4.30;;;1.20;99.90;;;;;;8248630;28;20215;-62
2024/01/14 06:59:05;;;;;;;5.87;4.00;;;1.20;99.90;;;;;;8245756;28;20231;-62
2024/01/14 07:03:06;;;;;;;5.30;3.93;;;1.20;99.90;;;;;;8251227;28;20196;-62
2024/01/14 07:07:10;;;;;;;4.90;4.13;;;1.20;47.00;;;;;;8224212;28;20206;-63
2024/01/14 07:11:11;;;;;;;6.63;3.63;;;1.20;99.90;;;;;;8235985;28;20212;-64
2024/01/14 07:15:12;;;;;;;5.87;3.67;;;1.20;99.90;;;;;;8234387;28;20247;-63
2024/01/14 07:19:13;;;;;;;5.23;3.53;;;1.30;1.00;;;;;;8230342;28;20704;-63
2024/01/14 07:23:14;;;;;;;6.53;3.70;;;1.30;99.90;;;;;;8231412;28;20278;-62
2024/01/14 07:27:15;;;;;;;6.33;3.77;;;1.30;99.90;;;;;;8245108;28;20199;-62
2024/01/14 07:31:20;;;;;;;7.30;3.90;;;1.20;1.00;;;;;;8232782;28;20318;-62
2024/01/14 07:35:21;;;;;;;4.83;3.37;;;1.20;99.90;;;;;;8229224;28;20212;-62
2024/01/14 07:39:24;;;;;;;7.13;3.70;;;1.20;99.90;;;;;;8228350;28;20188;-62
2024/01/14 07:43:25;;;;;;;6.03;3.30;;;1.20;99.90;;;;;;8226481;28;20419;-64
2024/01/14 07:47:26;;;;;;;4.53;3.40;;;1.20;99.90;;;;;;8229311;28;20187;-62
2024/01/14 07:51:27;;;;;;;5.37;3.33;;;1.30;41.10;;;;;;8233613;28;20195;-63
2024/01/14 07:55:27;;;;;;;6.00;3.57;;;1.30;1.00;;;;;;8233747;28;20263;-63
2024/01/14 07:59:28;;;;;;;4.33;2.90;;;1.30;99.90;;;;;;8224969;28;20207;-62
2024/01/14 08:03:29;;;;;;;5.03;3.40;;;1.30;99.90;;;;;;8231179;28;20184;-61
2024/01/14 08:07:31;;;;;;;4.30;2.80;;;1.40;99.90;;;;;;8220824;28;20199;-62
2024/01/14 08:11:31;;;;;;;4.67;3.23;;;1.40;99.90;;;;;;8229453;28;20333;-62
2024/01/14 08:15:32;;;;;;;3.80;3.17;;;1.50;99.90;;;;;;8239435;28;20216;-63
2024/01/14 08:19:33;;;;;;;4.97;3.23;;;1.40;99.90;;;;;;8235665;28;20192;-63
2024/01/14 08:23:35;;;;;;;4.20;3.40;;;1.50;99.90;;;;;;8234625;28;20262;-62
2024/01/14 08:27:38;;;;;;;4.20;3.40;;;1.50;99.90;;;;;;8241820;28;20246;-62
2024/01/14 08:31:40;;;;;;;3.57;3.20;;;1.50;1.00;;;;;;8236199;28;20192;-62
2024/01/14 08:35:41;;;;;;;5.33;4.03;;;1.60;99.90;;;;;;8231258;28;20195;-63
2024/01/14 08:39:42;;;;;;;6.60;3.53;;;1.70;99.90;;;;;;8239065;28;20191;-63
2024/01/14 08:43:43;;;;;;;4.40;3.50;;;1.70;99.90;;;;;;8238308;28;20670;-63
2024/01/14 08:47:44;;;;;;;4.53;3.60;;;1.80;87.60;;;;;;8233359;28;20446;-63
2024/01/14 08:51:45;;;;;;;5.27;4.03;;;1.80;1.00;;;;;;8232112;28;20255;-63
2024/01/14 08:55:45;;;;;;;6.07;4.20;;;1.70;1.00;;;;;;8236772;28;20208;-62
2024/01/14 08:59:46;;;;;;;5.27;3.93;;;1.60;1.00;;;;;;8235101;28;20231;-62
2024/01/14 09:03:47;;;;;;;6.07;4.40;;;1.70;1.00;;;;;;8236280;28;20347;-64
2024/01/14 09:07:47;;;;;;;4.60;3.70;;;1.70;1.00;;;;;;8232229;28;20199;-64
2024/01/14 09:11:48;;;;;;;6.93;3.40;;;1.80;99.90;;;;;;8253669;28;20200;-63
2024/01/14 09:15:49;;;;;;;4.07;2.60;;;1.80;99.90;;;;;;8237784;28;20246;-66
2024/01/14 09:19:50;;;;;;;3.60;2.67;;;1.80;1.00;;;;;;8231111;28;20253;-62
2024/01/14 09:23:51;;;;;;;4.67;3.00;;;1.80;1.00;;;;;;8234636;28;20489;-62
2024/01/14 09:27:52;;;;;;;5.37;3.00;;;1.80;1.00;;;;;;8234222;28;20187;-62
2024/01/14 09:31:53;;;;;;;5.83;3.30;;;1.90;1.00;;;;;;8239346;28;20180;-63
2024/01/14 09:35:55;;;;;;;3.87;2.80;;;1.90;1.00;;;;;;8236006;28;20219;-63
2024/01/14 09:39:55;;;;;;;4.03;3.10;;;1.80;1.00;;;;;;8241257;28;20194;-64
2024/01/14 09:43:57;;;;;;;3.90;2.83;;;1.80;99.90;;;;;;8237591;28;20180;-61
2024/01/14 09:47:59;;;;;;;6.10;3.50;;;1.90;99.90;;;;;;8253568;28;20192;-63
2024/01/14 09:52:02;;;;;;;4.50;3.30;;;2.00;99.90;;;;;;8238050;28;20192;-63
2024/01/14 09:56:07;;;;;;;4.37;3.20;;;2.10;99.90;;;;;;8234528;28;20319;-64
2024/01/14 10:00:09;;;;;;;4.37;3.37;;;2.20;1.00;;;;;;8230954;28;20217;-64
2024/01/14 10:04:12;;;;;;;6.13;2.93;;;2.30;1.00;;;;;;8252025;28;20483;-63
2024/01/14 10:08:13;;;;;;;3.07;2.40;;;2.30;99.90;;;;;;8225850;28;20191;-63
2024/01/14 10:12:15;;;;;;;4.93;3.33;;;2.10;99.90;;;;;;8229284;28;20200;-62
2024/01/14 10:16:17;;;;;;;4.80;3.13;;;1.90;1.00;;;;;;8228450;28;20326;-63
2024/01/14 10:20:21;;;;;;;5.13;3.30;;;1.90;1.00;;;;;;8230738;28;20188;-63
2024/01/14 10:24:22;;;;;;;7.30;3.60;;;1.80;1.00;;;;;;8240079;28;20188;-62
2024/01/14 10:28:23;;;;;;;4.60;3.00;;;1.70;83.10;;;;;;8233504;28;20195;-64
2024/01/14 10:32:24;;;;;;;4.10;3.13;;;1.70;99.90;;;;;;8234201;28;20687;-65
2024/01/14 10:36:28;;;;;;;4.33;3.47;;;1.80;1.00;;;;;;8239891;28;20315;-62
2024/01/14 10:40:29;;;;;;;3.27;2.67;;;1.90;99.90;;;;;;8256978;28;20191;-63
2024/01/14 10:44:31;;;;;;;4.20;3.40;;;2.00;1.00;;;;;;8251961;28;20184;-66
2024/01/14 10:48:38;;;;;;;4.17;3.27;;;2.00;1.00;;;;;;8239578;28;20197;-66
2024/01/14 10:52:42;;;;;;;5.00;3.20;;;2.00;1.00;;;;;;8235547;28;20191;-64
2024/01/14 10:56:49;;;;;;;4.47;2.90;;;1.90;1.00;;;;;;8228082;28;20247;-64
2024/01/14 11:00:51;;;;;;;6.17;3.03;;;2.00;1.00;;;;;;8233111;28;20200;-65
2024/01/14 11:04:52;;;;;;;4.03;2.60;;;2.10;99.90;;;;;;8119296;28;20195;-64
2024/01/14 11:08:53;;;;;;;3.47;2.67;;;2.10;99.90;;;;;;8094334;28;20184;-63
2024/01/14 11:13:16;;;;;;;6.37;2.30;;;2.00;99.90;;;;;;8075804;28;20444;-64
2024/01/14 11:17:41;;;;;;;5.67;2.63;;;2.00;99.90;;;;;;8010668;28;20208;-64
2024/01/14 11:22:20;;;;;;;3.03;1.73;;;2.00;99.90;;;;;;7897333;28;20841;-69
2024/01/14 11:26:24;;;;;;;3.10;1.70;;;2.10;99.90;;;;;;7907517;28;20740;-65
2024/01/14 11:30:49;;;;;;;4.17;2.10;;;1.90;99.90;;;;;;7885115;28;20250;-64
2024/01/14 11:34:52;;;;;;;3.80;2.30;;;1.70;99.90;;;;;;7873885;28;20318;-65
2024/01/14 11:38:53;;;;;;;2.80;1.67;;;1.80;1.00;;;;;;7876765;28;20184;-63
2024/01/14 11:43:00;;;;;;;3.07;2.00;;;1.90;90.40;;;;;;7869687;28;20218;-64
2024/01/14 11:47:00;;;;;;;3.13;2.37;;;2.00;1.00;;;;;;7841546;28;20203;-64
2024/01/14 11:51:02;;;;;;;4.40;2.40;;;2.00;1.00;;;;;;7963181;28;20196;-64
2024/01/14 11:55:06;;;;;;;2.60;2.30;;;2.30;1.00;;;;;;7958046;28;20584;-64
2024/01/14 11:59:08;;;;;;;4.30;2.40;;;2.40;99.90;;;;;;7915643;28;20207;-64
2024/01/14 12:03:14;;;;;;;3.33;2.40;;;2.50;99.90;;;;;;7882458;28;20511;-66
2024/01/14 12:07:22;;;;;;;3.10;2.10;;;2.60;99.90;;;;;;7891510;28;20324;-64
2024/01/14 12:11:25;;;;;;;3.27;2.40;;;2.40;99.90;;;;;;7886461;28;20205;-65
2024/01/14 12:15:27;;;;;;;2.87;2.40;;;2.30;99.90;;;;;;7938027;28;20221;-64
2024/01/14 12:19:28;;;;;;;3.40;2.40;;;2.10;99.90;;;;;;8036380;28;21201;-66
2024/01/14 12:23:29;;;;;;;4.13;2.30;;;2.10;99.90;;;;;;8096274;28;20313;-65
2024/01/14 12:27:32;;;;;;;4.10;2.40;;;2.20;99.90;;;;;;8172589;28;20203;-65
2024/01/14 12:31:34;;;;;;;4.33;2.40;;;2.30;99.90;;;;;;8232570;28;20207;-63
2024/01/14 12:35:39;;;;;;;3.97;2.77;;;2.30;99.90;;;;;;8213532;28;20228;-63
2024/01/14 12:39:40;;;;;;;2.83;2.10;;;2.30;99.90;;;;;;8215408;28;20192;-64
2024/01/14 12:43:42;;;;;;;4.17;2.43;;;2.30;99.90;;;;;;8064774;28;20206;-65
2024/01/14 12:47:43;;;;;;;4.37;1.93;;;2.30;99.90;;;;;;8115476;28;20469;-64
2024/01/14 12:51:44;;;;;;;3.90;2.27;;;2.30;99.90;;;;;;8042627;28;20199;-66
2024/01/14 12:55:46;;;;;;;4.97;2.53;;;2.50;99.90;;;;;;8064464;28;20285;-64
2024/01/14 12:59:47;;;;;;;5.37;2.00;;;2.50;99.90;;;;;;7986316;28;20213;-64
2024/01/14 13:03:48;;;;;;;4.13;2.40;;;2.50;99.90;;;;;;7982533;28;20480;-65
2024/01/14 13:07:51;;;;;;;2.70;2.03;;;2.50;99.90;;;;;;7996184;28;20200;-65
2024/01/14 13:11:52;;;;;;;3.77;2.40;;;2.50;99.90;;;;;;8057075;28;20268;-64
2024/01/14 13:15:53;;;;;;;4.83;2.67;;;2.40;99.90;;;;;;8101477;28;20226;-65
2024/01/14 13:19:55;;;;;;;4.83;1.97;;;2.30;99.90;;;;;;8124857;28;20192;-66
2024/01/14 13:23:56;;;;;;;3.87;2.10;;;2.30;99.90;;;;;;7923595;28;20226;-64
2024/01/14 13:27:57;;;;;;;3.90;1.90;;;2.40;99.90;;;;;;7868467;28;20202;-66
2024/01/14 13:31:58;;;;;;;3.03;1.90;;;2.40;99.90;;;;;;7883159;28;20207;-66
2024/01/14 13:35:59;;;;;;;3.73;2.50;;;2.20;99.90;;;;;;7850157;28;20213;-64
2024/01/14 13:40:00;;;;;;;3.03;2.40;;;2.20;99.90;;;;;;7930315;28;20521;-62
2024/01/14 13:44:01;;;;;;;4.27;2.60;;;2.10;99.90;;;;;;7853514;28;20451;-64
2024/01/14 13:48:03;;;;;;;4.13;2.70;;;2.10;99.90;;;;;;7923078;28;20203;-65
2024/01/14 13:52:07;;;;;;;2.80;2.50;;;2.20;99.90;;;;;;7916637;28;20769;-65
2024/01/14 13:56:11;;;;;;;4.30;2.80;;;2.20;99.90;;;;;;7981755;28;20242;-64
2024/01/14 14:00:12;;;;;;;5.03;2.87;;;2.10;99.90;;;;;;7953269;28;20234;-64
2024/01/14 14:04:14;;;;;;;3.27;2.50;;;2.10;99.90;;;;;;7895926;28;21067;-63
2024/01/14 14:08:18;;;;;;;3.63;2.30;;;2.20;99.90;;;;;;7826883;28;20255;-64
2024/01/14 14:12:19;;;;;;;3.20;2.73;;;2.20;99.90;;;;;;7898917;28;20234;-63
2024/01/14 14:16:20;;;;;;;4.53;3.07;;;2.30;99.90;;;;;;7941256;28;20602;-66
2024/01/14 14:20:24;;;;;;;7.00;5.00;;;2.20;99.90;;;;;;7950845;28;20199;-64
2024/01/14 14:24:32;;;;;;;5.83;3.40;;;2.20;99.90;;;;;;7915411;28;20280;-64
2024/01/14 14:28:34;;;;;;;5.43;3.37;;;2.10;99.90;;;;;;7979242;28;20192;-64
2024/01/14 14:32:36;;;;;;;4.40;3.33;;;2.10;99.90;;;;;;8005479;28;20193;-64
2024/01/14 14:36:37;;;;;;;6.67;3.90;;;2.10;99.90;;;;;;8077300;28;20215;-63
2024/01/14 14:40:37;;;;;;;5.23;3.43;;;2.00;99.90;;;;;;8019965;28;20196;-63
2024/01/14 14:44:39;;;;;;;11.57;7.93;;;2.00;99.90;;;;;;7958162;28;20196;-63
2024/01/14 14:48:39;;;;;;;5.00;4.23;;;2.00;99.90;;;;;;7955304;28;20263;-64
2024/01/14 14:52:40;;;;;;;7.23;4.03;;;1.90;99.90;;;;;;7922960;28;20195;-64
2024/01/14 14:56:41;;;;;;;6.23;4.23;;;1.90;99.90;;;;;;7890445;28;20291;-63
2024/01/14 15:00:48;;;;;;;4.63;3.47;;;1.80;99.90;;;;;;7884922;28;20207;-62
2024/01/14 15:04:49;;;;;;;7.07;3.80;;;1.80;1.00;;;;;;7953983;28;20280;-63
2024/01/14 15:08:50;;;;;;;5.77;4.30;;;1.80;1.00;;;;;;7867248;28;20212;-63
2024/01/14 15:12:51;;;;;;;6.07;4.27;;;1.80;1.00;;;;;;7842510;28;20223;-62
2024/01/14 15:16:54;;;;;;;7.17;4.40;;;1.80;99.90;;;;;;7972535;28;20776;-64
2024/01/14 15:20:55;;;;;;;8.37;5.47;;;1.80;1.00;;;;;;7965384;28;20188;-63
2024/01/14 15:24:56;;;;;;;15.17;8.30;;;1.80;1.00;;;;;;7834346;28;21228;-63
2024/01/14 15:28:57;;;;;;;7.77;4.93;;;1.80;1.00;;;;;;7813236;28;21117;-63
2024/01/14 15:32:58;;;;;;;8.37;4.90;;;1.80;1.00;;;;;;7857219;28;20195;-64
2024/01/14 15:37:00;;;;;;;7.27;4.43;;;1.80;1.00;;;;;;7796294;28;20319;-65
2024/01/14 15:41:01;;;;;;;8.67;5.60;;;1.80;1.00;;;;;;7966433;28;20196;-65
2024/01/14 15:45:06;;;;;;;10.40;5.87;;;1.80;1.00;;;;;;7954433;28;20192;-63
2024/01/14 15:49:07;;;;;;;7.97;5.20;;;1.70;1.00;;;;;;7971168;28;21461;-63
2024/01/14 15:53:09;;;;;;;10.30;5.70;;;1.70;1.00;;;;;;8000754;28;20414;-64
2024/01/14 15:57:10;;;;;;;8.33;5.90;;;1.70;1.00;;;;;;8107636;28;20334;-64
2024/01/14 16:01:11;;;;;;;7.93;5.87;;;1.70;1.00;;;;;;8036082;28;20234;-64
2024/01/14 16:05:16;;;;;;;8.57;6.33;;;1.70;1.00;;;;;;8066990;28;20238;-64
2024/01/14 16:09:18;;;;;;;8.63;5.63;;;1.70;1.00;;;;;;8013544;28;20217;-63
2024/01/14 16:13:19;;;;;;;9.23;6.27;;;1.70;1.00;;;;;;8082840;28;20187;-65
2024/01/14 16:17:20;;;;;;;11.73;7.53;;;1.70;1.00;;;;;;8098858;28;20235;-64
2024/01/14 16:21:24;;;;;;;11.23;7.40;;;1.70;1.00;;;;;;8084441;28;20183;-65
2024/01/14 16:25:27;;;;;;;13.13;7.80;;;1.70;1.00;;;;;;8081164;28;20196;-62
2024/01/14 16:29:31;;;;;;;10.37;7.17;;;1.70;1.00;;;;;;8070536;28;20187;-64
2024/01/14 16:33:32;;;;;;;12.13;7.43;;;1.60;1.00;;;;;;8049598;28;20226;-64
2024/01/14 16:37:36;;;;;;;14.20;8.03;;;1.60;1.00;;;;;;7992198;28;21076;-64
2024/01/14 16:41:38;;;;;;;13.43;8.40;;;1.60;19.30;;;;;;7986830;28;20198;-63
2024/01/14 16:45:39;;;;;;;11.10;7.30;;;1.60;47.40;;;;;;7891770;28;20190;-65
2024/01/14 16:49:46;;;;;;;14.23;8.33;;;1.60;33.20;;;;;;7767870;28;20268;-63
2024/01/14 16:53:48;;;;;;;10.73;8.53;;;1.60;1.00;;;;;;7809535;28;20257;-63
2024/01/14 16:57:49;;;;;;;15.57;9.47;;;1.60;14.80;;;;;;8194949;28;20286;-64
2024/01/14 17:01:51;;;;;;;11.43;8.43;;;1.60;1.00;;;;;;8204850;28;20184;-63
2024/01/14 17:05:52;;;;;;;11.93;7.73;;;1.60;29.60;;;;;;8222589;28;20543;-63
2024/01/14 17:09:53;;;;;;;12.70;7.60;;;1.60;1.00;;;;;;8209457;28;20295;-64
2024/01/14 17:13:54;;;;;;;10.17;6.90;;;1.60;48.90;;;;;;8078966;28;20669;-64
2024/01/14 17:17:57;;;;;;;26.83;12.03;;;1.60;40.60;;;;;;7958917;28;22112;-64
2024/01/14 17:21:58;;;;;;;11.63;8.20;;;1.60;1.00;;;;;;7853479;28;20307;-64
2024/01/14 17:26:00;;;;;;;13.93;8.00;;;1.60;1.00;;;;;;7911552;28;20284;-64
2024/01/14 17:30:02;;;;;;;16.20;11.87;;;1.60;1.00;;;;;;7905304;28;20199;-63
2024/01/14 17:34:04;;;;;;;10.77;7.13;;;1.60;1.00;;;;;;8035591;28;20195;-63
2024/01/14 17:38:08;;;;;;;10.37;7.77;;;1.50;1.00;;;;;;8045296;28;20216;-64
2024/01/14 17:42:09;;;;;;;9.83;5.97;;;1.50;1.00;;;;;;7968442;28;20195;-64
2024/01/14 17:46:10;;;;;;;12.07;6.53;;;1.50;1.00;;;;;;7989989;28;20192;-65
2024/01/14 17:50:11;;;;;;;10.53;6.57;;;1.50;99.90;;;;;;8086657;28;20191;-63
2024/01/14 17:54:12;;;;;;;9.37;4.97;;;1.50;99.90;;;;;;8068376;28;20196;-64
2024/01/14 17:58:19;;;;;;;9.33;5.30;;;1.50;99.90;;;;;;7975851;28;20228;-63
2024/01/14 18:02:20;;;;;;;7.23;5.20;;;1.50;99.90;;;;;;7912024;28;20188;-64
2024/01/14 18:06:20;;;;;;;7.30;5.30;;;1.50;99.90;;;;;;7879440;28;20203;-65
2024/01/14 18:10:22;;;;;;;8.27;4.87;;;1.60;99.90;;;;;;7873029;28;20195;-64
2024/01/14 18:14:23;;;;;;;6.90;5.07;;;1.60;99.90;;;;;;7928220;28;21960;-65
2024/01/14 18:18:25;;;;;;;7.93;5.83;;;1.60;99.90;;;;;;8006813;28;20209;-64
2024/01/14 18:22:26;;;;;;;7.70;6.13;;;1.60;99.90;;;;;;8046666;28;20192;-66
2024/01/14 18:26:29;;;;;;;10.00;6.43;;;1.60;99.90;;;;;;8042338;28;20768;-67
2024/01/14 18:30:30;;;;;;;11.27;6.43;;;1.60;99.90;;;;;;8057861;28;20184;-64
2024/01/14 18:34:33;;;;;;;7.97;5.83;;;1.70;99.90;;;;;;8043132;28;20195;-64
2024/01/14 18:38:36;;;;;;;10.13;6.80;;;1.70;99.90;;;;;;8036891;28;20904;-64
2024/01/14 18:42:36;;;;;;;9.93;6.70;;;1.70;99.90;;;;;;8026504;28;20183;-65
2024/01/14 18:46:37;;;;;;;9.77;6.73;;;1.70;99.90;;;;;;8000790;28;20184;-65
2024/01/14 18:50:40;;;;;;;9.30;6.43;;;1.70;99.90;;;;;;8036193;28;20513;-64
2024/01/14 18:54:41;;;;;;;11.27;7.27;;;1.70;99.90;;;;;;8001660;28;20188;-64
2024/01/14 18:58:43;;;;;;;10.03;6.73;;;1.70;99.90;;;;;;8004649;28;20204;-64
2024/01/14 19:02:47;;;;;;;10.33;7.13;;;1.60;99.90;;;;;;8052711;28;20191;-64
2024/01/14 19:06:48;;;;;;;11.77;7.67;;;1.60;1.00;;;;;;7981695;28;20192;-66
2024/01/14 19:10:50;;;;;;;13.80;8.70;;;1.60;1.00;;;;;;7984226;28;21046;-64
2024/01/14 19:14:51;;;;;;;12.70;8.67;;;1.60;99.90;;;;;;7973001;28;20214;-64
2024/01/14 19:18:52;;;;;;;13.40;8.77;;;1.60;99.90;;;;;;8061286;28;20191;-64
2024/01/14 19:22:55;;;;;;;15.57;9.80;;;1.50;99.90;;;;;;8008099;28;20218;-65
2024/01/14 19:26:56;;;;;;;19.17;9.57;;;1.50;99.90;;;;;;8056365;28;20271;-63
2024/01/14 19:30:57;;;;;;;14.60;10.70;;;1.60;99.90;;;;;;8087399;28;20200;-64
2024/01/14 19:34:58;;;;;;;17.23;10.50;;;1.50;99.90;;;;;;8015245;28;20218;-64
2024/01/14 19:39:00;;;;;;;15.90;11.17;;;1.50;99.90;;;;;;8005186;28;20192;-64
2024/01/14 19:43:01;;;;;;;17.67;10.27;;;1.60;99.90;;;;;;8012317;28;20504;-65
2024/01/14 19:47:01;;;;;;;16.53;9.87;;;1.50;99.90;;;;;;8003229;28;20196;-64
2024/01/14 19:51:03;;;;;;;22.67;12.27;;;1.50;99.90;;;;;;7997753;28;20196;-65
2024/01/14 19:55:06;;;;;;;18.43;10.43;;;1.50;99.90;;;;;;8006814;28;20699;-65
2024/01/14 19:59:07;;;;;;;16.17;9.70;;;1.50;99.90;;;;;;8004854;28;20215;-64
2024/01/14 20:03:08;;;;;;;20.40;12.73;;;1.50;99.90;;;;;;8021347;28;20265;-64
2024/01/14 20:07:09;;;;;;;15.73;10.10;;;1.50;99.90;;;;;;8068222;28;20289;-64
2024/01/14 20:11:11;;;;;;;18.30;12.03;;;1.50;99.90;;;;;;7939700;28;746279;-64
2024/01/14 20:15:12;;;;;;;17.23;12.07;;;1.50;99.90;;;;;;8114130;28;20660;-64
2024/01/14 20:19:14;;;;;;;15.83;9.87;;;1.50;99.90;;;;;;8158273;28;20296;-64
2024/01/14 20:23:15;;;;;;;18.47;10.27;;;1.50;99.90;;;;;;8163290;28;20225;-65
2024/01/14 20:27:16;;;;;;;19.70;11.70;;;1.60;99.90;;;;;;8164917;28;20204;-64
2024/01/14 20:31:16;;;;;;;19.43;10.50;;;1.60;99.90;;;;;;8173134;28;20281;-63
2024/01/14 20:35:17;;;;;;;19.07;11.27;;;1.60;99.90;;;;;;8179912;28;20217;-64
2024/01/14 20:39:19;;;;;;;20.50;12.10;;;1.60;99.90;;;;;;8177128;28;20200;-64
2024/01/14 20:43:20;;;;;;;16.83;10.20;;;1.60;99.90;;;;;;8209682;28;20579;-63
2024/01/14 20:47:21;;;;;;;13.87;9.97;;;1.60;99.90;;;;;;8204980;28;20220;-64
2024/01/14 20:51:22;;;;;;;16.00;9.07;;;1.60;99.90;;;;;;8177625;28;20671;-65
2024/01/14 20:55:23;;;;;;;13.30;8.50;;;1.60;99.90;;;;;;8178841;28;20208;-65
2024/01/14 20:59:24;;;;;;;12.23;8.47;;;1.60;99.90;;;;;;8181337;28;20304;-64
2024/01/14 21:03:25;;;;;;;12.30;8.43;;;1.60;99.90;;;;;;8182212;28;20879;-64
2024/01/14 21:07:28;;;;;;;13.33;8.60;;;1.60;99.90;;;;;;8176672;28;20189;-64
2024/01/14 21:11:29;;;;;;;13.17;8.33;;;1.60;99.90;;;;;;8209534;28;20212;-64
2024/01/14 21:15:32;;;;;;;13.23;8.63;;;1.60;99.90;;;;;;8200593;28;20407;-64